sensor_id;sensor_type;location;lat;lon;timestamp;P1;durP1;ratioP1;P2;durP2;ratioP2
76459;SDS011;65299;46.084;18.762;2023-06-14T00:02:18;7.13;;;2.80;;
76459;SDS011;65299;46.084;18.762;2023-06-14T00:05:18;5.03;;;2.60;;
76459;SDS011;65299;46.084;18.762;2023-06-14T00:08:18;5.95;;;2.53;;
76459;SDS011;65299;46.084;18.762;2023-06-14T00:11:21;4.53;;;2.40;;
76459;SDS011;65299;46.084;18.762;2023-06-14T00:14:21;5.15;;;2.72;;
76459;SDS011;65299;46.084;18.762;2023-06-14T00:17:22;5.43;;;2.60;;
76459;SDS011;65299;46.084;18.762;2023-06-14T00:20:22;5.23;;;2.83;;
76459;SDS011;65299;46.084;18.762;2023-06-14T00:23:22;3.35;;;2.15;;
76459;SDS011;65299;46.084;18.762;2023-06-14T00:26:23;6.40;;;2.60;;
76459;SDS011;65299;46.084;18.762;2023-06-14T00:29:23;5.10;;;2.70;;
76459;SDS011;65299;46.084;18.762;2023-06-14T00:32:24;7.00;;;2.50;;
76459;SDS011;65299;46.084;18.762;2023-06-14T00:35:25;5.55;;;2.30;;
76459;SDS011;65299;46.084;18.762;2023-06-14T00:38:26;5.43;;;2.33;;
76459;SDS011;65299;46.084;18.762;2023-06-14T00:41:26;3.50;;;2.10;;
76459;SDS011;65299;46.084;18.762;2023-06-14T00:44:27;5.70;;;2.60;;
76459;SDS011;65299;46.084;18.762;2023-06-14T00:47:27;4.57;;;2.43;;
76459;SDS011;65299;46.084;18.762;2023-06-14T00:50:28;3.42;;;2.22;;
76459;SDS011;65299;46.084;18.762;2023-06-14T00:53:30;4.47;;;2.40;;
76459;SDS011;65299;46.084;18.762;2023-06-14T00:56:35;5.43;;;2.03;;
76459;SDS011;65299;46.084;18.762;2023-06-14T00:59:37;4.65;;;2.30;;
76459;SDS011;65299;46.084;18.762;2023-06-14T01:02:48;8.52;;;2.75;;
76459;SDS011;65299;46.084;18.762;2023-06-14T01:05:50;4.18;;;2.55;;
76459;SDS011;65299;46.084;18.762;2023-06-14T01:12:29;4.60;;;2.60;;
76459;SDS011;65299;46.084;18.762;2023-06-14T01:15:42;3.90;;;2.60;;
76459;SDS011;65299;46.084;18.762;2023-06-14T01:18:44;5.85;;;2.13;;
76459;SDS011;65299;46.084;18.762;2023-06-14T01:21:48;7.45;;;2.60;;
76459;SDS011;65299;46.084;18.762;2023-06-14T01:24:51;6.90;;;2.72;;
76459;SDS011;65299;46.084;18.762;2023-06-14T01:28:02;4.13;;;2.60;;
76459;SDS011;65299;46.084;18.762;2023-06-14T01:31:04;7.10;;;2.95;;
76459;SDS011;65299;46.084;18.762;2023-06-14T01:34:04;7.87;;;2.60;;
76459;SDS011;65299;46.084;18.762;2023-06-14T01:37:05;6.83;;;2.57;;
76459;SDS011;65299;46.084;18.762;2023-06-14T01:40:06;6.65;;;2.38;;
76459;SDS011;65299;46.084;18.762;2023-06-14T01:43:08;5.18;;;2.85;;
76459;SDS011;65299;46.084;18.762;2023-06-14T01:46:10;6.03;;;2.77;;
76459;SDS011;65299;46.084;18.762;2023-06-14T01:49:12;6.72;;;2.47;;
76459;SDS011;65299;46.084;18.762;2023-06-14T01:52:12;7.03;;;2.53;;
76459;SDS011;65299;46.084;18.762;2023-06-14T01:55:13;7.23;;;2.83;;
76459;SDS011;65299;46.084;18.762;2023-06-14T01:58:14;5.10;;;2.77;;
76459;SDS011;65299;46.084;18.762;2023-06-14T02:01:16;6.18;;;2.42;;
76459;SDS011;65299;46.084;18.762;2023-06-14T02:04:17;3.93;;;2.90;;
76459;SDS011;65299;46.084;18.762;2023-06-14T02:07:17;6.30;;;2.83;;
76459;SDS011;65299;46.084;18.762;2023-06-14T02:10:17;5.57;;;2.77;;
76459;SDS011;65299;46.084;18.762;2023-06-14T02:13:18;5.93;;;2.77;;
76459;SDS011;65299;46.084;18.762;2023-06-14T02:16:18;7.77;;;3.27;;
76459;SDS011;65299;46.084;18.762;2023-06-14T02:19:19;8.43;;;2.78;;
76459;SDS011;65299;46.084;18.762;2023-06-14T02:22:20;7.97;;;2.40;;
76459;SDS011;65299;46.084;18.762;2023-06-14T02:25:21;5.63;;;2.70;;
76459;SDS011;65299;46.084;18.762;2023-06-14T02:28:22;6.67;;;2.70;;
76459;SDS011;65299;46.084;18.762;2023-06-14T02:31:22;3.70;;;2.70;;
76459;SDS011;65299;46.084;18.762;2023-06-14T02:34:23;6.40;;;2.73;;
76459;SDS011;65299;46.084;18.762;2023-06-14T02:37:23;6.60;;;3.07;;
76459;SDS011;65299;46.084;18.762;2023-06-14T02:40:24;3.53;;;2.60;;
76459;SDS011;65299;46.084;18.762;2023-06-14T02:43:24;9.13;;;3.13;;
76459;SDS011;65299;46.084;18.762;2023-06-14T02:46:24;7.57;;;2.80;;
76459;SDS011;65299;46.084;18.762;2023-06-14T02:49:25;5.57;;;2.87;;
76459;SDS011;65299;46.084;18.762;2023-06-14T02:52:25;7.82;;;3.47;;
76459;SDS011;65299;46.084;18.762;2023-06-14T02:55:26;6.20;;;3.60;;
76459;SDS011;65299;46.084;18.762;2023-06-14T02:58:26;9.00;;;3.90;;
76459;SDS011;65299;46.084;18.762;2023-06-14T03:01:27;7.20;;;4.10;;
76459;SDS011;65299;46.084;18.762;2023-06-14T03:04:33;10.43;;;4.00;;
76459;SDS011;65299;46.084;18.762;2023-06-14T03:07:37;7.45;;;3.25;;
76459;SDS011;65299;46.084;18.762;2023-06-14T03:10:41;17.92;;;3.95;;
76459;SDS011;65299;46.084;18.762;2023-06-14T03:13:41;9.70;;;3.87;;
76459;SDS011;65299;46.084;18.762;2023-06-14T03:16:41;6.47;;;2.57;;
76459;SDS011;65299;46.084;18.762;2023-06-14T03:19:43;11.40;;;3.10;;
76459;SDS011;65299;46.084;18.762;2023-06-14T03:22:43;11.50;;;3.85;;
76459;SDS011;65299;46.084;18.762;2023-06-14T03:25:46;10.25;;;3.42;;
76459;SDS011;65299;46.084;18.762;2023-06-14T03:28:46;9.70;;;4.20;;
76459;SDS011;65299;46.084;18.762;2023-06-14T03:31:56;9.88;;;3.40;;
76459;SDS011;65299;46.084;18.762;2023-06-14T03:34:58;10.15;;;3.97;;
76459;SDS011;65299;46.084;18.762;2023-06-14T03:37:58;10.70;;;4.27;;
76459;SDS011;65299;46.084;18.762;2023-06-14T03:40:58;6.23;;;3.60;;
76459;SDS011;65299;46.084;18.762;2023-06-14T03:43:59;8.80;;;3.17;;
76459;SDS011;65299;46.084;18.762;2023-06-14T03:46:59;8.23;;;3.55;;
76459;SDS011;65299;46.084;18.762;2023-06-14T03:50:00;5.57;;;3.07;;
76459;SDS011;65299;46.084;18.762;2023-06-14T03:53:01;5.60;;;3.10;;
76459;SDS011;65299;46.084;18.762;2023-06-14T03:56:02;5.87;;;3.17;;
76459;SDS011;65299;46.084;18.762;2023-06-14T03:59:02;6.00;;;3.10;;
76459;SDS011;65299;46.084;18.762;2023-06-14T04:02:02;6.90;;;3.08;;
76459;SDS011;65299;46.084;18.762;2023-06-14T04:05:03;6.50;;;2.80;;
76459;SDS011;65299;46.084;18.762;2023-06-14T04:08:04;6.93;;;3.17;;
76459;SDS011;65299;46.084;18.762;2023-06-14T04:11:08;6.90;;;3.00;;
76459;SDS011;65299;46.084;18.762;2023-06-14T04:14:09;5.97;;;3.07;;
76459;SDS011;65299;46.084;18.762;2023-06-14T04:17:09;6.35;;;3.08;;
76459;SDS011;65299;46.084;18.762;2023-06-14T04:20:10;5.70;;;2.40;;
76459;SDS011;65299;46.084;18.762;2023-06-14T04:23:14;4.88;;;2.60;;
76459;SDS011;65299;46.084;18.762;2023-06-14T04:26:15;8.40;;;2.80;;
76459;SDS011;65299;46.084;18.762;2023-06-14T04:29:16;8.15;;;2.83;;
76459;SDS011;65299;46.084;18.762;2023-06-14T04:32:19;8.10;;;2.75;;
76459;SDS011;65299;46.084;18.762;2023-06-14T04:35:19;6.00;;;2.50;;
76459;SDS011;65299;46.084;18.762;2023-06-14T04:38:20;9.20;;;2.17;;
76459;SDS011;65299;46.084;18.762;2023-06-14T04:41:25;6.23;;;2.40;;
76459;SDS011;65299;46.084;18.762;2023-06-14T04:44:30;8.35;;;3.00;;
76459;SDS011;65299;46.084;18.762;2023-06-14T04:47:31;3.67;;;2.50;;
76459;SDS011;65299;46.084;18.762;2023-06-14T04:50:32;5.80;;;2.70;;
76459;SDS011;65299;46.084;18.762;2023-06-14T04:53:33;3.40;;;2.50;;
76459;SDS011;65299;46.084;18.762;2023-06-14T04:56:34;4.55;;;2.65;;
76459;SDS011;65299;46.084;18.762;2023-06-14T04:59:34;4.93;;;2.23;;
76459;SDS011;65299;46.084;18.762;2023-06-14T05:02:35;5.38;;;2.78;;
76459;SDS011;65299;46.084;18.762;2023-06-14T05:05:37;4.63;;;2.72;;
76459;SDS011;65299;46.084;18.762;2023-06-14T05:08:38;7.30;;;3.47;;
76459;SDS011;65299;46.084;18.762;2023-06-14T05:11:38;5.23;;;2.97;;
76459;SDS011;65299;46.084;18.762;2023-06-14T05:14:38;5.13;;;3.13;;
76459;SDS011;65299;46.084;18.762;2023-06-14T05:17:39;5.00;;;2.90;;
76459;SDS011;65299;46.084;18.762;2023-06-14T05:20:41;7.55;;;3.03;;
76459;SDS011;65299;46.084;18.762;2023-06-14T05:23:41;7.07;;;3.17;;
76459;SDS011;65299;46.084;18.762;2023-06-14T05:26:42;5.53;;;2.83;;
76459;SDS011;65299;46.084;18.762;2023-06-14T05:29:42;8.87;;;3.00;;
76459;SDS011;65299;46.084;18.762;2023-06-14T05:32:43;5.47;;;3.10;;
76459;SDS011;65299;46.084;18.762;2023-06-14T05:35:43;5.13;;;3.23;;
76459;SDS011;65299;46.084;18.762;2023-06-14T05:38:44;4.88;;;2.75;;
76459;SDS011;65299;46.084;18.762;2023-06-14T05:41:45;4.80;;;3.33;;
76459;SDS011;65299;46.084;18.762;2023-06-14T05:44:46;7.00;;;2.83;;
76459;SDS011;65299;46.084;18.762;2023-06-14T05:47:46;5.83;;;2.90;;
76459;SDS011;65299;46.084;18.762;2023-06-14T05:50:46;5.67;;;3.20;;
76459;SDS011;65299;46.084;18.762;2023-06-14T05:53:50;7.93;;;3.40;;
76459;SDS011;65299;46.084;18.762;2023-06-14T05:56:51;6.32;;;3.13;;
76459;SDS011;65299;46.084;18.762;2023-06-14T05:59:51;10.50;;;3.13;;
76459;SDS011;65299;46.084;18.762;2023-06-14T06:02:52;5.60;;;3.38;;
76459;SDS011;65299;46.084;18.762;2023-06-14T06:05:52;5.83;;;3.17;;
76459;SDS011;65299;46.084;18.762;2023-06-14T06:08:52;4.90;;;3.10;;
76459;SDS011;65299;46.084;18.762;2023-06-14T06:11:53;4.87;;;2.97;;
76459;SDS011;65299;46.084;18.762;2023-06-14T06:14:53;6.78;;;4.10;;
76459;SDS011;65299;46.084;18.762;2023-06-14T06:17:54;7.40;;;3.20;;
76459;SDS011;65299;46.084;18.762;2023-06-14T06:20:55;5.78;;;3.55;;
76459;SDS011;65299;46.084;18.762;2023-06-14T06:23:55;5.27;;;2.77;;
76459;SDS011;65299;46.084;18.762;2023-06-14T06:26:56;5.13;;;2.80;;
76459;SDS011;65299;46.084;18.762;2023-06-14T06:29:56;6.50;;;2.90;;
76459;SDS011;65299;46.084;18.762;2023-06-14T06:32:57;6.23;;;3.00;;
76459;SDS011;65299;46.084;18.762;2023-06-14T06:35:58;4.65;;;3.05;;
76459;SDS011;65299;46.084;18.762;2023-06-14T06:38:58;6.67;;;2.80;;
76459;SDS011;65299;46.084;18.762;2023-06-14T06:41:58;7.07;;;2.70;;
76459;SDS011;65299;46.084;18.762;2023-06-14T06:44:59;5.63;;;2.70;;
76459;SDS011;65299;46.084;18.762;2023-06-14T06:48:00;3.25;;;2.72;;
76459;SDS011;65299;46.084;18.762;2023-06-14T06:51:00;5.00;;;2.70;;
76459;SDS011;65299;46.084;18.762;2023-06-14T06:54:01;5.15;;;2.50;;
76459;SDS011;65299;46.084;18.762;2023-06-14T06:57:02;5.77;;;2.40;;
76459;SDS011;65299;46.084;18.762;2023-06-14T07:00:03;9.75;;;2.88;;
76459;SDS011;65299;46.084;18.762;2023-06-14T07:03:08;5.30;;;2.83;;
76459;SDS011;65299;46.084;18.762;2023-06-14T07:06:09;5.73;;;2.40;;
76459;SDS011;65299;46.084;18.762;2023-06-14T07:09:10;4.70;;;2.60;;
76459;SDS011;65299;46.084;18.762;2023-06-14T07:12:14;3.63;;;2.70;;
76459;SDS011;65299;46.084;18.762;2023-06-14T07:15:15;4.40;;;2.50;;
76459;SDS011;65299;46.084;18.762;2023-06-14T07:18:15;5.80;;;2.30;;
76459;SDS011;65299;46.084;18.762;2023-06-14T07:21:16;3.67;;;2.30;;
76459;SDS011;65299;46.084;18.762;2023-06-14T07:24:16;5.72;;;2.50;;
76459;SDS011;65299;46.084;18.762;2023-06-14T07:27:17;2.90;;;2.30;;
76459;SDS011;65299;46.084;18.762;2023-06-14T07:30:17;4.00;;;2.20;;
76459;SDS011;65299;46.084;18.762;2023-06-14T07:33:17;4.87;;;2.53;;
76459;SDS011;65299;46.084;18.762;2023-06-14T07:36:18;4.72;;;2.40;;
76459;SDS011;65299;46.084;18.762;2023-06-14T07:39:18;4.50;;;2.00;;
76459;SDS011;65299;46.084;18.762;2023-06-14T07:42:19;5.30;;;2.23;;
76459;SDS011;65299;46.084;18.762;2023-06-14T07:45:20;4.80;;;2.10;;
76459;SDS011;65299;46.084;18.762;2023-06-14T07:48:21;4.87;;;2.37;;
76459;SDS011;65299;46.084;18.762;2023-06-14T07:51:22;3.10;;;2.03;;
76459;SDS011;65299;46.084;18.762;2023-06-14T07:54:23;5.05;;;2.33;;
76459;SDS011;65299;46.084;18.762;2023-06-14T07:57:26;3.65;;;2.25;;
76459;SDS011;65299;46.084;18.762;2023-06-14T08:00:27;3.97;;;2.13;;
76459;SDS011;65299;46.084;18.762;2023-06-14T08:03:27;3.53;;;1.80;;
76459;SDS011;65299;46.084;18.762;2023-06-14T08:06:28;2.57;;;1.90;;
76459;SDS011;65299;46.084;18.762;2023-06-14T08:09:28;4.03;;;1.97;;
76459;SDS011;65299;46.084;18.762;2023-06-14T08:12:29;2.53;;;1.90;;
76459;SDS011;65299;46.084;18.762;2023-06-14T08:15:29;2.33;;;1.60;;
76459;SDS011;65299;46.084;18.762;2023-06-14T08:18:30;2.87;;;1.80;;
76459;SDS011;65299;46.084;18.762;2023-06-14T08:21:30;2.33;;;1.80;;
76459;SDS011;65299;46.084;18.762;2023-06-14T08:24:33;4.88;;;2.13;;
76459;SDS011;65299;46.084;18.762;2023-06-14T08:27:33;2.00;;;1.53;;
76459;SDS011;65299;46.084;18.762;2023-06-14T08:30:34;4.40;;;1.98;;
76459;SDS011;65299;46.084;18.762;2023-06-14T08:33:34;3.83;;;1.57;;
76459;SDS011;65299;46.084;18.762;2023-06-14T08:36:35;3.93;;;1.70;;
76459;SDS011;65299;46.084;18.762;2023-06-14T08:39:36;2.67;;;1.80;;
76459;SDS011;65299;46.084;18.762;2023-06-14T08:42:36;3.10;;;1.60;;
76459;SDS011;65299;46.084;18.762;2023-06-14T08:45:37;6.03;;;1.73;;
76459;SDS011;65299;46.084;18.762;2023-06-14T08:48:38;4.47;;;1.70;;
76459;SDS011;65299;46.084;18.762;2023-06-14T08:51:39;3.03;;;1.80;;
76459;SDS011;65299;46.084;18.762;2023-06-14T08:54:40;5.50;;;1.93;;
76459;SDS011;65299;46.084;18.762;2023-06-14T08:57:44;5.43;;;1.98;;
76459;SDS011;65299;46.084;18.762;2023-06-14T09:00:47;3.38;;;1.95;;
76459;SDS011;65299;46.084;18.762;2023-06-14T09:03:49;2.58;;;1.52;;
76459;SDS011;65299;46.084;18.762;2023-06-14T09:06:50;3.58;;;1.98;;
76459;SDS011;65299;46.084;18.762;2023-06-14T09:10:13;8.57;;;2.10;;
76459;SDS011;65299;46.084;18.762;2023-06-14T09:13:15;2.42;;;1.90;;
76459;SDS011;65299;46.084;18.762;2023-06-14T09:16:16;4.13;;;1.85;;
76459;SDS011;65299;46.084;18.762;2023-06-14T09:19:23;2.03;;;1.80;;
76459;SDS011;65299;46.084;18.762;2023-06-14T09:22:25;3.60;;;2.05;;
76459;SDS011;65299;46.084;18.762;2023-06-14T09:25:25;2.83;;;1.90;;
76459;SDS011;65299;46.084;18.762;2023-06-14T09:28:27;3.80;;;1.55;;
76459;SDS011;65299;46.084;18.762;2023-06-14T09:31:28;3.45;;;1.92;;
76459;SDS011;65299;46.084;18.762;2023-06-14T09:34:32;3.17;;;1.70;;
76459;SDS011;65299;46.084;18.762;2023-06-14T09:37:33;2.75;;;1.75;;
76459;SDS011;65299;46.084;18.762;2023-06-14T09:40:34;3.97;;;1.57;;
76459;SDS011;65299;46.084;18.762;2023-06-14T09:43:36;3.20;;;1.85;;
76459;SDS011;65299;46.084;18.762;2023-06-14T09:46:38;2.05;;;1.83;;
76459;SDS011;65299;46.084;18.762;2023-06-14T09:49:39;3.30;;;2.17;;
76459;SDS011;65299;46.084;18.762;2023-06-14T09:52:39;5.23;;;2.00;;
76459;SDS011;65299;46.084;18.762;2023-06-14T09:55:43;3.70;;;1.70;;
76459;SDS011;65299;46.084;18.762;2023-06-14T09:58:45;2.72;;;1.65;;
76459;SDS011;65299;46.084;18.762;2023-06-14T10:01:46;2.80;;;1.90;;
76459;SDS011;65299;46.084;18.762;2023-06-14T10:05:04;7.97;;;1.85;;
76459;SDS011;65299;46.084;18.762;2023-06-14T10:08:11;2.67;;;1.67;;
76459;SDS011;65299;46.084;18.762;2023-06-14T10:11:16;2.33;;;1.83;;
76459;SDS011;65299;46.084;18.762;2023-06-14T10:14:17;3.58;;;2.13;;
76459;SDS011;65299;46.084;18.762;2023-06-14T10:17:42;2.97;;;1.88;;
76459;SDS011;65299;46.084;18.762;2023-06-14T10:20:47;3.90;;;1.63;;
76459;SDS011;65299;46.084;18.762;2023-06-14T10:23:56;2.60;;;2.07;;
76459;SDS011;65299;46.084;18.762;2023-06-14T10:27:03;3.60;;;2.15;;
76459;SDS011;65299;46.084;18.762;2023-06-14T10:30:10;2.97;;;1.83;;
76459;SDS011;65299;46.084;18.762;2023-06-14T10:33:11;2.60;;;1.83;;
76459;SDS011;65299;46.084;18.762;2023-06-14T10:36:30;5.33;;;1.47;;
76459;SDS011;65299;46.084;18.762;2023-06-14T10:39:42;4.90;;;1.90;;
76459;SDS011;65299;46.084;18.762;2023-06-14T10:42:51;2.22;;;1.92;;
76459;SDS011;65299;46.084;18.762;2023-06-14T10:52:45;2.50;;;1.60;;
76459;SDS011;65299;46.084;18.762;2023-06-14T10:55:45;2.70;;;1.85;;
76459;SDS011;65299;46.084;18.762;2023-06-14T10:58:46;7.57;;;2.10;;
76459;SDS011;65299;46.084;18.762;2023-06-14T11:04:53;2.80;;;1.92;;
76459;SDS011;65299;46.084;18.762;2023-06-14T11:11:15;2.53;;;1.70;;
76459;SDS011;65299;46.084;18.762;2023-06-14T11:14:16;3.83;;;1.80;;
76459;SDS011;65299;46.084;18.762;2023-06-14T11:17:17;3.35;;;1.73;;
76459;SDS011;65299;46.084;18.762;2023-06-14T11:20:18;3.70;;;2.07;;
76459;SDS011;65299;46.084;18.762;2023-06-14T11:23:20;2.67;;;2.15;;
76459;SDS011;65299;46.084;18.762;2023-06-14T11:26:25;3.45;;;2.00;;
76459;SDS011;65299;46.084;18.762;2023-06-14T11:29:28;5.47;;;1.97;;
76459;SDS011;65299;46.084;18.762;2023-06-14T11:32:31;3.60;;;1.83;;
76459;SDS011;65299;46.084;18.762;2023-06-14T11:35:31;4.78;;;1.88;;
76459;SDS011;65299;46.084;18.762;2023-06-14T11:38:36;3.63;;;1.60;;
76459;SDS011;65299;46.084;18.762;2023-06-14T11:41:43;2.38;;;1.83;;
76459;SDS011;65299;46.084;18.762;2023-06-14T11:44:49;3.13;;;1.50;;
76459;SDS011;65299;46.084;18.762;2023-06-14T11:47:49;2.90;;;1.73;;
76459;SDS011;65299;46.084;18.762;2023-06-14T11:50:50;2.67;;;1.65;;
76459;SDS011;65299;46.084;18.762;2023-06-14T11:53:51;4.80;;;2.10;;
76459;SDS011;65299;46.084;18.762;2023-06-14T11:56:52;2.80;;;1.60;;
76459;SDS011;65299;46.084;18.762;2023-06-14T11:59:52;4.30;;;1.90;;
76459;SDS011;65299;46.084;18.762;2023-06-14T12:02:56;3.22;;;1.85;;
76459;SDS011;65299;46.084;18.762;2023-06-14T12:09:07;3.05;;;1.95;;
76459;SDS011;65299;46.084;18.762;2023-06-14T12:12:12;1.98;;;1.77;;
76459;SDS011;65299;46.084;18.762;2023-06-14T12:15:13;3.00;;;1.80;;
76459;SDS011;65299;46.084;18.762;2023-06-14T12:18:13;2.43;;;1.73;;
76459;SDS011;65299;46.084;18.762;2023-06-14T12:21:14;3.17;;;1.83;;
76459;SDS011;65299;46.084;18.762;2023-06-14T12:24:15;3.03;;;1.90;;
76459;SDS011;65299;46.084;18.762;2023-06-14T12:27:15;2.63;;;1.70;;
76459;SDS011;65299;46.084;18.762;2023-06-14T12:30:18;1.90;;;1.60;;
76459;SDS011;65299;46.084;18.762;2023-06-14T12:33:19;3.30;;;1.80;;
76459;SDS011;65299;46.084;18.762;2023-06-14T12:36:19;3.35;;;1.80;;
76459;SDS011;65299;46.084;18.762;2023-06-14T12:39:20;5.23;;;1.70;;
76459;SDS011;65299;46.084;18.762;2023-06-14T12:42:21;2.35;;;1.80;;
76459;SDS011;65299;46.084;18.762;2023-06-14T12:45:21;2.63;;;1.63;;
76459;SDS011;65299;46.084;18.762;2023-06-14T12:48:23;2.40;;;1.67;;
76459;SDS011;65299;46.084;18.762;2023-06-14T12:51:23;2.30;;;1.67;;
76459;SDS011;65299;46.084;18.762;2023-06-14T12:54:25;4.95;;;1.77;;
76459;SDS011;65299;46.084;18.762;2023-06-14T12:57:25;4.20;;;1.80;;
76459;SDS011;65299;46.084;18.762;2023-06-14T13:00:26;5.03;;;1.67;;
76459;SDS011;65299;46.084;18.762;2023-06-14T13:03:26;3.72;;;1.90;;
76459;SDS011;65299;46.084;18.762;2023-06-14T13:06:27;2.23;;;1.80;;
76459;SDS011;65299;46.084;18.762;2023-06-14T13:09:29;3.88;;;1.70;;
76459;SDS011;65299;46.084;18.762;2023-06-14T13:12:29;2.17;;;1.87;;
76459;SDS011;65299;46.084;18.762;2023-06-14T13:15:30;4.03;;;1.80;;
76459;SDS011;65299;46.084;18.762;2023-06-14T13:18:31;2.97;;;1.90;;
76459;SDS011;65299;46.084;18.762;2023-06-14T13:21:31;2.33;;;1.63;;
76459;SDS011;65299;46.084;18.762;2023-06-14T13:24:32;2.73;;;1.80;;
76459;SDS011;65299;46.084;18.762;2023-06-14T13:27:32;4.07;;;2.20;;
76459;SDS011;65299;46.084;18.762;2023-06-14T13:30:32;4.88;;;1.90;;
76459;SDS011;65299;46.084;18.762;2023-06-14T13:33:33;3.37;;;1.80;;
76459;SDS011;65299;46.084;18.762;2023-06-14T13:36:33;3.67;;;1.80;;
76459;SDS011;65299;46.084;18.762;2023-06-14T13:39:34;4.00;;;1.90;;
76459;SDS011;65299;46.084;18.762;2023-06-14T13:42:37;3.97;;;2.00;;
76459;SDS011;65299;46.084;18.762;2023-06-14T13:45:37;2.57;;;1.97;;
76459;SDS011;65299;46.084;18.762;2023-06-14T13:48:38;6.23;;;2.00;;
76459;SDS011;65299;46.084;18.762;2023-06-14T13:51:38;2.55;;;1.90;;
76459;SDS011;65299;46.084;18.762;2023-06-14T13:54:38;3.57;;;1.90;;
76459;SDS011;65299;46.084;18.762;2023-06-14T13:57:39;4.27;;;2.00;;
76459;SDS011;65299;46.084;18.762;2023-06-14T14:00:39;3.03;;;1.97;;
76459;SDS011;65299;46.084;18.762;2023-06-14T14:03:40;2.88;;;2.03;;
76459;SDS011;65299;46.084;18.762;2023-06-14T14:06:40;2.30;;;1.70;;
76459;SDS011;65299;46.084;18.762;2023-06-14T14:09:41;3.33;;;2.00;;
76459;SDS011;65299;46.084;18.762;2023-06-14T14:12:43;3.83;;;1.90;;
76459;SDS011;65299;46.084;18.762;2023-06-14T14:15:43;2.53;;;2.10;;
76459;SDS011;65299;46.084;18.762;2023-06-14T14:18:44;9.00;;;2.20;;
76459;SDS011;65299;46.084;18.762;2023-06-14T14:21:45;3.50;;;2.05;;
76459;SDS011;65299;46.084;18.762;2023-06-14T14:24:46;3.73;;;2.10;;
76459;SDS011;65299;46.084;18.762;2023-06-14T14:27:47;4.17;;;2.00;;
76459;SDS011;65299;46.084;18.762;2023-06-14T14:30:47;3.10;;;2.40;;
76459;SDS011;65299;46.084;18.762;2023-06-14T14:33:48;4.97;;;2.80;;
76459;SDS011;65299;46.084;18.762;2023-06-14T14:36:48;4.97;;;2.87;;
76459;SDS011;65299;46.084;18.762;2023-06-14T14:39:49;6.07;;;2.93;;
76459;SDS011;65299;46.084;18.762;2023-06-14T14:42:49;5.83;;;2.73;;
76459;SDS011;65299;46.084;18.762;2023-06-14T14:45:49;3.10;;;2.80;;
76459;SDS011;65299;46.084;18.762;2023-06-14T14:48:50;2.97;;;2.67;;
76459;SDS011;65299;46.084;18.762;2023-06-14T14:51:50;2.90;;;2.70;;
76459;SDS011;65299;46.084;18.762;2023-06-14T14:54:51;3.73;;;2.70;;
76459;SDS011;65299;46.084;18.762;2023-06-14T14:57:51;2.77;;;2.40;;
76459;SDS011;65299;46.084;18.762;2023-06-14T15:00:51;2.97;;;2.60;;
76459;SDS011;65299;46.084;18.762;2023-06-14T15:03:52;4.35;;;3.00;;
76459;SDS011;65299;46.084;18.762;2023-06-14T15:06:52;3.30;;;2.70;;
76459;SDS011;65299;46.084;18.762;2023-06-14T15:09:54;2.90;;;2.60;;
76459;SDS011;65299;46.084;18.762;2023-06-14T15:12:55;5.47;;;2.05;;
76459;SDS011;65299;46.084;18.762;2023-06-14T15:15:55;3.00;;;2.70;;
76459;SDS011;65299;46.084;18.762;2023-06-14T15:18:56;3.30;;;2.67;;
76459;SDS011;65299;46.084;18.762;2023-06-14T15:21:56;6.97;;;2.70;;
76459;SDS011;65299;46.084;18.762;2023-06-14T15:24:58;4.05;;;2.60;;
76459;SDS011;65299;46.084;18.762;2023-06-14T15:27:59;3.70;;;2.17;;
76459;SDS011;65299;46.084;18.762;2023-06-14T15:31:01;2.85;;;2.55;;
76459;SDS011;65299;46.084;18.762;2023-06-14T15:34:01;3.80;;;2.80;;
76459;SDS011;65299;46.084;18.762;2023-06-14T15:37:02;3.13;;;2.60;;
76459;SDS011;65299;46.084;18.762;2023-06-14T15:40:02;3.10;;;2.55;;
76459;SDS011;65299;46.084;18.762;2023-06-14T15:43:03;3.22;;;2.33;;
76459;SDS011;65299;46.084;18.762;2023-06-14T15:46:04;4.17;;;2.63;;
76459;SDS011;65299;46.084;18.762;2023-06-14T15:49:10;2.60;;;2.10;;
76459;SDS011;65299;46.084;18.762;2023-06-14T15:52:13;2.22;;;1.95;;
76459;SDS011;65299;46.084;18.762;2023-06-14T15:55:13;5.20;;;2.23;;
76459;SDS011;65299;46.084;18.762;2023-06-14T15:58:13;4.87;;;1.87;;
76459;SDS011;65299;46.084;18.762;2023-06-14T16:01:14;5.32;;;1.90;;
76459;SDS011;65299;46.084;18.762;2023-06-14T16:04:15;3.77;;;2.10;;
76459;SDS011;65299;46.084;18.762;2023-06-14T16:07:15;2.73;;;2.20;;
76459;SDS011;65299;46.084;18.762;2023-06-14T16:10:15;2.47;;;2.10;;
76459;SDS011;65299;46.084;18.762;2023-06-14T16:13:16;3.60;;;2.00;;
76459;SDS011;65299;46.084;18.762;2023-06-14T16:16:17;3.37;;;2.07;;
76459;SDS011;65299;46.084;18.762;2023-06-14T16:19:17;5.67;;;2.07;;
76459;SDS011;65299;46.084;18.762;2023-06-14T16:22:17;7.07;;;2.17;;
76459;SDS011;65299;46.084;18.762;2023-06-14T16:25:18;2.23;;;1.93;;
76459;SDS011;65299;46.084;18.762;2023-06-14T16:28:18;4.77;;;2.23;;
76459;SDS011;65299;46.084;18.762;2023-06-14T16:31:19;4.60;;;2.00;;
76459;SDS011;65299;46.084;18.762;2023-06-14T16:34:22;3.13;;;1.83;;
76459;SDS011;65299;46.084;18.762;2023-06-14T16:37:22;4.95;;;1.95;;
76459;SDS011;65299;46.084;18.762;2023-06-14T16:40:22;4.33;;;2.17;;
76459;SDS011;65299;46.084;18.762;2023-06-14T16:43:23;6.87;;;2.00;;
76459;SDS011;65299;46.084;18.762;2023-06-14T16:46:33;4.13;;;1.80;;
76459;SDS011;65299;46.084;18.762;2023-06-14T16:49:34;3.28;;;1.90;;
76459;SDS011;65299;46.084;18.762;2023-06-14T16:52:35;3.07;;;1.90;;
76459;SDS011;65299;46.084;18.762;2023-06-14T16:55:35;2.63;;;2.08;;
76459;SDS011;65299;46.084;18.762;2023-06-14T16:58:36;3.10;;;2.00;;
76459;SDS011;65299;46.084;18.762;2023-06-14T17:01:36;4.10;;;2.10;;
76459;SDS011;65299;46.084;18.762;2023-06-14T17:04:37;4.47;;;2.60;;
76459;SDS011;65299;46.084;18.762;2023-06-14T17:07:38;7.90;;;2.20;;
76459;SDS011;65299;46.084;18.762;2023-06-14T17:10:38;3.35;;;2.10;;
76459;SDS011;65299;46.084;18.762;2023-06-14T17:13:39;2.53;;;1.93;;
76459;SDS011;65299;46.084;18.762;2023-06-14T17:16:39;4.67;;;2.00;;
76459;SDS011;65299;46.084;18.762;2023-06-14T17:19:40;4.53;;;1.80;;
76459;SDS011;65299;46.084;18.762;2023-06-14T17:22:40;4.00;;;1.90;;
76459;SDS011;65299;46.084;18.762;2023-06-14T17:25:41;7.07;;;2.13;;
76459;SDS011;65299;46.084;18.762;2023-06-14T17:28:41;3.10;;;1.90;;
76459;SDS011;65299;46.084;18.762;2023-06-14T17:31:41;4.27;;;1.63;;
76459;SDS011;65299;46.084;18.762;2023-06-14T17:34:42;3.38;;;1.95;;
76459;SDS011;65299;46.084;18.762;2023-06-14T17:37:42;3.40;;;1.90;;
76459;SDS011;65299;46.084;18.762;2023-06-14T17:40:42;5.57;;;1.90;;
76459;SDS011;65299;46.084;18.762;2023-06-14T17:43:43;2.93;;;2.03;;
76459;SDS011;65299;46.084;18.762;2023-06-14T17:46:43;4.72;;;2.10;;
76459;SDS011;65299;46.084;18.762;2023-06-14T17:49:44;4.70;;;2.77;;
76459;SDS011;65299;46.084;18.762;2023-06-14T17:52:45;3.58;;;2.50;;
76459;SDS011;65299;46.084;18.762;2023-06-14T17:55:45;3.47;;;2.60;;
76459;SDS011;65299;46.084;18.762;2023-06-14T17:58:46;6.43;;;2.97;;
76459;SDS011;65299;46.084;18.762;2023-06-14T18:01:46;7.47;;;2.90;;
76459;SDS011;65299;46.084;18.762;2023-06-14T18:04:47;3.70;;;2.63;;
76459;SDS011;65299;46.084;18.762;2023-06-14T18:07:47;3.97;;;2.20;;
76459;SDS011;65299;46.084;18.762;2023-06-14T18:10:48;3.78;;;2.22;;
76459;SDS011;65299;46.084;18.762;2023-06-14T18:13:48;10.40;;;2.20;;
76459;SDS011;65299;46.084;18.762;2023-06-14T18:16:49;4.33;;;2.33;;